Aeroporto :







RITROVATECI SU...

 
LOGIN :

Iscrizione | Disclaimer

   EN    FR    IT 

 









Sommario :    VFR   VFR Marginale   IFR   IFR Intensivo   IFR Molto Intensivo
Visibilità : 
Base nubi : 
>= 8 km
>= 3000ft
5 / 8 km
1000 / 3000 ft
1500m / 5 km
500 / 1000 ft
800 / 1500m
200 / 500 ft
< 800m
< 200 ft
Simboli :   Temporali  Nebbia  Neve Forte  Precipitazioni Forti  Vento > 20 kt






- Altitudine del aeroporto : 335 ft
- Codice IATA : BTV


KBTV - Burlington International

ULTIMO METAR :
  • 151043Z 00000KT 10SM SCT007 BKN070 16/13 A3009 RMK AO2 T01560133

METARs OBSOLETI :
  • 150954Z 00000KT 10SM FEW090 15/13 A3008 RMK AO2 SLP184 T01500128
  • 150854Z 05003KT 10SM CLR 15/13 A3007 RMK AO2 SLP181 T01500128 55001
  • 150754Z 00000KT 10SM CLR 15/13 A3006 RMK AO2 SLP179 T01500128

TAF KBTV
Valido dal 15 a 06 ore il 16 a 06 ore UTC


150531Z 1506/1606 00000KT P6SM SKC
FM151800 VRB05KT P6SM SCT150
FIR KZBW / America del Nord



MetMap, La meteo Aeronautica in un colpo d'occhio ! - Copyright ORBIFLY Dicembre 2007 - Disclaimer

ORBIFLY MET'MAP TEAM :

Programmazione e sviluppo : Alexandra Zaïnal
Concezione : Baudouin d'Aumeries
Aiuto per la programmazione : Marc-Olivier Méhu
Supporto tecnico e logistico : Manuel Goepfert
Aiuto per la traduzione : Arnaldo La Scala

Contatto : metmap@orbifly.com




FONTI E CREDITI :

   NOAA